Time;durP1;ratioP1;P1;durP2;ratioP2;P2;SDS_P1;SDS_P2;PMS_P1;PMS_P2;Temp;Humidity;BMP_temperature;BMP_pressure;BME280_temperature;BME280_humidity;BME280_pressure;Samples;Min_cycle;Max_cycle;Signal;HPM_P1;HPM_P2
2022/12/09 00:01:19;;;;;;;23.85;12.88;;;1.30;82.00;;;;;;5015594;28;20033;-59
2022/12/09 00:03:45;;;;;;;29.90;13.35;;;1.40;81.80;;;;;;5015793;28;20416;-56
2022/12/09 00:06:20;;;;;;;24.95;13.90;;;1.30;81.70;;;;;;5015200;28;20030;-60
2022/12/09 00:08:47;;;;;;;24.88;14.10;;;1.30;81.70;;;;;;5015077;28;20026;-59
2022/12/09 00:11:12;;;;;;;23.30;13.50;;;1.30;81.50;;;;;;5014039;28;20033;-59
2022/12/09 00:13:38;;;;;;;24.42;13.65;;;1.20;81.40;;;;;;5013159;28;20037;-59
2022/12/09 00:16:08;;;;;;;25.83;14.50;;;1.20;81.60;;;;;;5012070;28;20038;-58
2022/12/09 00:18:34;;;;;;;26.52;14.90;;;1.10;81.60;;;;;;5014027;28;20034;-58
2022/12/09 00:21:21;;;;;;;23.38;13.75;;;1.10;81.70;;;;;;5012258;28;20038;-59
2022/12/09 00:23:47;;;;;;;26.40;12.98;;;1.10;82.00;;;;;;5012221;28;20037;-59
2022/12/09 00:26:13;;;;;;;25.38;13.10;;;1.10;82.10;;;;;;5011449;28;20052;-60
2022/12/09 00:28:39;;;;;;;24.58;13.80;;;1.00;82.20;;;;;;5012556;28;20048;-59
2022/12/09 00:31:06;;;;;;;22.55;13.55;;;1.00;82.20;;;;;;5014066;28;20038;-58
2022/12/09 00:33:33;;;;;;;26.13;13.55;;;1.00;82.30;;;;;;5011308;28;20434;-60
2022/12/09 00:36:08;;;;;;;23.73;13.25;;;1.00;82.50;;;;;;5009211;28;20046;-59
2022/12/09 00:38:34;;;;;;;22.67;13.13;;;1.00;82.40;;;;;;5004179;28;20045;-61
2022/12/09 00:41:00;;;;;;;22.98;13.25;;;1.00;82.40;;;;;;5006578;28;20045;-59
2022/12/09 00:43:26;;;;;;;26.58;13.52;;;1.00;82.30;;;;;;5003319;28;20034;-60
2022/12/09 00:45:51;;;;;;;23.60;13.80;;;1.00;82.20;;;;;;5004095;28;20037;-60
2022/12/09 00:48:17;;;;;;;23.60;13.45;;;1.00;82.00;;;;;;5004328;28;20069;-59
2022/12/09 00:50:44;;;;;;;21.48;12.55;;;1.00;82.00;;;;;;5006505;28;20038;-59
2022/12/09 00:53:10;;;;;;;23.98;13.25;;;1.00;82.10;;;;;;5001898;28;20206;-59
2022/12/09 00:55:35;;;;;;;26.10;13.82;;;1.00;82.00;;;;;;5009283;28;20129;-60
2022/12/09 00:58:01;;;;;;;24.52;13.57;;;1.00;82.10;;;;;;5003755;28;20076;-59
2022/12/09 01:00:26;;;;;;;24.35;14.05;;;1.00;82.30;;;;;;5009901;28;20026;-58
2022/12/09 01:02:52;;;;;;;24.58;13.57;;;1.00;82.40;;;;;;5007034;28;20565;-60
2022/12/09 01:05:18;;;;;;;23.73;13.63;;;0.90;82.50;;;;;;5010448;28;20675;-58
2022/12/09 01:07:43;;;;;;;27.73;14.27;;;0.90;82.50;;;;;;5012252;28;20061;-59
2022/12/09 01:10:09;;;;;;;23.50;13.15;;;0.90;82.50;;;;;;5005053;28;20042;-58
2022/12/09 01:12:34;;;;;;;24.08;13.75;;;0.90;82.40;;;;;;5000709;28;20116;-60
2022/12/09 01:15:00;;;;;;;30.05;15.27;;;1.00;82.60;;;;;;5007362;28;20100;-59
2022/12/09 01:17:26;;;;;;;29.40;15.38;;;1.00;82.80;;;;;;5010883;28;20045;-59
2022/12/09 01:19:51;;;;;;;27.48;13.88;;;1.00;82.80;;;;;;5005386;28;20105;-60
2022/12/09 01:22:17;;;;;;;22.52;13.68;;;1.00;82.70;;;;;;5008063;28;20038;-61
2022/12/09 01:24:43;;;;;;;24.92;14.00;;;1.00;82.60;;;;;;5007962;28;20053;-61
2022/12/09 01:27:08;;;;;;;26.10;14.00;;;1.00;82.70;;;;;;5011043;28;20058;-59
2022/12/09 01:29:34;;;;;;;26.75;14.68;;;1.00;82.80;;;;;;5009916;28;20702;-59
2022/12/09 01:32:00;;;;;;;28.20;14.82;;;1.00;82.90;;;;;;5009766;28;20533;-58
2022/12/09 01:34:25;;;;;;;26.75;14.27;;;1.00;82.90;;;;;;5013916;28;20046;-59
2022/12/09 01:36:51;;;;;;;25.17;14.13;;;1.00;82.90;;;;;;5015665;28;20486;-59
2022/12/09 01:39:16;;;;;;;24.13;13.63;;;1.00;82.90;;;;;;5019638;28;20034;-59
2022/12/09 01:41:42;;;;;;;26.08;13.82;;;1.00;83.00;;;;;;5019200;28;20450;-61
2022/12/09 01:44:16;;;;;;;27.13;14.05;;;1.00;83.00;;;;;;5017124;28;20030;-60
2022/12/09 01:46:43;;;;;;;25.20;13.93;;;1.10;83.30;;;;;;5017007;28;20037;-58
2022/12/09 01:49:11;;;;;;;25.52;14.10;;;1.10;83.30;;;;;;5007178;28;20128;-61
2022/12/09 01:51:37;;;;;;;27.40;14.63;;;1.10;83.20;;;;;;5010245;28;20042;-59
2022/12/09 01:54:03;;;;;;;25.50;14.73;;;1.10;83.20;;;;;;5007760;28;20349;-58
2022/12/09 01:56:34;;;;;;;28.90;16.08;;;1.10;83.20;;;;;;5008352;28;20483;-60
2022/12/09 01:59:04;;;;;;;26.17;15.90;;;1.10;83.30;;;;;;4993267;28;20053;-60
2022/12/09 02:01:30;;;;;;;27.70;16.42;;;1.10;83.40;;;;;;5007005;28;20033;-60
2022/12/09 02:03:56;;;;;;;26.23;14.50;;;1.10;83.60;;;;;;5011533;28;20096;-61
2022/12/09 02:06:21;;;;;;;27.48;16.35;;;1.20;83.80;;;;;;5011086;28;22680;-60
2022/12/09 02:08:48;;;;;;;27.70;16.52;;;1.20;83.90;;;;;;5012332;28;20041;-60
2022/12/09 02:11:32;;;;;;;28.73;15.30;;;1.20;83.90;;;;;;5006965;28;20034;-60
2022/12/09 02:14:30;;;;;;;30.55;15.65;;;1.20;83.80;;;;;;5014445;28;20121;-59
2022/12/09 02:17:23;;;;;;;25.80;13.77;;;1.20;84.00;;;;;;5006442;28;20030;-60
2022/12/09 02:20:07;;;;;;;25.50;14.38;;;1.20;83.90;;;;;;5011896;28;20030;-59
2022/12/09 02:22:43;;;;;;;25.23;14.68;;;1.20;83.90;;;;;;5008673;28;20631;-60
2022/12/09 02:25:32;;;;;;;26.23;15.07;;;1.20;83.90;;;;;;5010884;28;20084;-61
2022/12/09 02:28:21;;;;;;;22.90;14.02;;;1.20;83.70;;;;;;5010552;28;20042;-60
2022/12/09 02:31:12;;;;;;;23.52;14.38;;;1.20;83.70;;;;;;5009078;28;20045;-58
2022/12/09 02:34:00;;;;;;;26.90;14.70;;;1.20;84.20;;;;;;4990965;28;20029;-60
2022/12/09 02:36:30;;;;;;;22.35;14.15;;;1.10;84.20;;;;;;5009827;28;20124;-58
2022/12/09 02:38:57;;;;;;;26.40;15.50;;;1.10;84.00;;;;;;5006703;28;20409;-57
2022/12/09 02:41:29;;;;;;;29.38;15.73;;;1.10;84.00;;;;;;5008113;28;20136;-59
2022/12/09 02:44:04;;;;;;;23.65;14.82;;;1.10;84.20;;;;;;5007934;28;20057;-59
2022/12/09 02:46:31;;;;;;;27.45;14.80;;;1.10;84.20;;;;;;5004677;28;20041;-58
2022/12/09 02:48:58;;;;;;;28.15;15.48;;;1.10;84.40;;;;;;5008248;28;20041;-60
2022/12/09 02:51:28;;;;;;;28.38;15.68;;;1.10;84.60;;;;;;5004283;28;20037;-59
2022/12/09 02:54:03;;;;;;;23.55;14.02;;;1.10;84.70;;;;;;5006457;28;20042;-60
2022/12/09 02:56:29;;;;;;;26.75;14.63;;;1.10;84.90;;;;;;5011979;28;21259;-59
2022/12/09 02:58:54;;;;;;;24.73;15.00;;;1.20;84.90;;;;;;5007888;28;20121;-60
2022/12/09 03:01:35;;;;;;;26.98;15.88;;;1.20;85.00;;;;;;5011818;28;20108;-62
2022/12/09 03:04:01;;;;;;;30.05;15.93;;;1.30;85.10;;;;;;5008310;28;20096;-58
2022/12/09 03:06:34;;;;;;;28.50;15.27;;;1.30;84.90;;;;;;5013396;28;20084;-59
2022/12/09 03:09:08;;;;;;;28.48;15.10;;;1.30;84.80;;;;;;5014715;28;20052;-61
2022/12/09 03:11:34;;;;;;;29.63;15.98;;;1.30;84.90;;;;;;5013463;28;20042;-58
2022/12/09 03:14:10;;;;;;;26.38;15.15;;;1.40;84.90;;;;;;5013179;28;20120;-58
2022/12/09 03:16:39;;;;;;;27.17;15.40;;;1.40;85.10;;;;;;5013906;28;20497;-60
2022/12/09 03:19:13;;;;;;;29.92;15.88;;;1.50;85.00;;;;;;5013160;28;20072;-59
2022/12/09 03:21:44;;;;;;;31.58;15.68;;;1.50;85.00;;;;;;4998419;28;20056;-59
2022/12/09 03:24:12;;;;;;;26.85;16.02;;;1.60;84.70;;;;;;5012105;28;20049;-60
2022/12/09 03:26:40;;;;;;;28.02;16.25;;;1.60;84.60;;;;;;5014001;28;20025;-61
2022/12/09 03:29:11;;;;;;;25.02;15.48;;;1.60;84.50;;;;;;5014119;28;20088;-61
2022/12/09 03:31:38;;;;;;;26.25;15.50;;;1.60;84.40;;;;;;5012579;28;20323;-60
2022/12/09 03:34:06;;;;;;;30.38;16.63;;;1.50;84.30;;;;;;5012404;28;20415;-60
2022/12/09 03:36:40;;;;;;;30.58;16.38;;;1.50;84.40;;;;;;5014822;28;20522;-60
2022/12/09 03:39:14;;;;;;;28.63;16.20;;;1.50;84.60;;;;;;5016667;28;20036;-59
2022/12/09 03:42:14;;;;;;;28.60;16.13;;;1.50;84.50;;;;;;5016591;28;20057;-59
2022/12/09 03:44:47;;;;;;;29.30;16.30;;;1.40;84.90;;;;;;4982829;28;20046;-58
2022/12/09 03:47:12;;;;;;;27.80;16.08;;;1.40;84.90;;;;;;5013896;28;20540;-58
2022/12/09 03:49:41;;;;;;;29.15;16.50;;;1.40;84.90;;;;;;5015134;28;20049;-60
2022/12/09 03:52:15;;;;;;;29.98;16.80;;;1.40;85.10;;;;;;5015856;28;20034;-58
2022/12/09 03:54:46;;;;;;;27.60;16.42;;;1.40;85.20;;;;;;5013520;28;20041;-60
2022/12/09 03:57:15;;;;;;;26.98;15.90;;;1.40;85.10;;;;;;5014643;28;20065;-59
2022/12/09 03:59:44;;;;;;;27.73;16.42;;;1.40;85.20;;;;;;5015461;28;20030;-60
2022/12/09 04:02:10;;;;;;;29.42;16.48;;;1.50;85.40;;;;;;5012471;28;20041;-60
2022/12/09 04:04:39;;;;;;;29.02;16.17;;;1.50;85.30;;;;;;5011000;28;20029;-59
2022/12/09 04:07:05;;;;;;;27.65;17.17;;;1.50;85.30;;;;;;5013041;28;20046;-58
2022/12/09 04:09:31;;;;;;;26.20;16.08;;;1.50;85.30;;;;;;5013326;28;20086;-60
2022/12/09 04:11:56;;;;;;;31.42;16.98;;;1.60;85.40;;;;;;5013850;28;20033;-59
2022/12/09 04:14:22;;;;;;;30.75;18.40;;;1.60;85.40;;;;;;5014075;28;20034;-61
2022/12/09 04:16:48;;;;;;;30.98;17.70;;;1.60;85.40;;;;;;5014199;28;20103;-58
2022/12/09 04:19:13;;;;;;;29.33;17.60;;;1.60;85.30;;;;;;5013458;28;20125;-60
2022/12/09 04:21:39;;;;;;;27.90;17.08;;;1.60;85.40;;;;;;5013161;28;20041;-58
2022/12/09 04:24:05;;;;;;;27.25;16.90;;;1.60;85.60;;;;;;5013868;28;20493;-61
2022/12/09 04:26:31;;;;;;;30.65;18.00;;;1.60;85.60;;;;;;5012500;28;20060;-60
2022/12/09 04:28:56;;;;;;;31.05;17.60;;;1.60;85.60;;;;;;5013153;28;20598;-60
2022/12/09 04:31:22;;;;;;;32.33;17.67;;;1.60;85.60;;;;;;5013552;28;20038;-58
2022/12/09 04:33:47;;;;;;;31.08;17.63;;;1.70;85.80;;;;;;5016261;28;20112;-60
2022/12/09 04:36:16;;;;;;;30.23;17.45;;;1.70;85.80;;;;;;5015769;28;20096;-58
2022/12/09 04:38:42;;;;;;;28.67;17.45;;;1.70;85.70;;;;;;5016414;28;20125;-61
2022/12/09 04:41:08;;;;;;;29.13;18.27;;;1.70;85.60;;;;;;5015215;28;20532;-60
2022/12/09 04:43:34;;;;;;;30.15;16.40;;;1.70;85.50;;;;;;5014134;28;20038;-59
2022/12/09 04:46:04;;;;;;;27.70;17.27;;;1.80;85.50;;;;;;5013974;28;20057;-60
2022/12/09 04:48:30;;;;;;;27.75;16.15;;;1.80;85.50;;;;;;5011534;28;20040;-60
2022/12/09 04:50:56;;;;;;;28.55;16.75;;;1.80;85.60;;;;;;5013073;28;20042;-60
2022/12/09 04:53:22;;;;;;;28.80;17.38;;;1.80;85.40;;;;;;5012921;28;20099;-60
2022/12/09 04:55:48;;;;;;;26.52;16.33;;;1.80;85.40;;;;;;5007326;28;20695;-60
2022/12/09 04:58:13;;;;;;;31.67;17.33;;;1.80;85.30;;;;;;5008503;28;21166;-58
2022/12/09 05:00:39;;;;;;;28.42;16.75;;;1.90;85.30;;;;;;5013118;28;20064;-60
2022/12/09 05:03:05;;;;;;;31.63;16.90;;;1.90;85.20;;;;;;5014611;28;20034;-59
2022/12/09 05:05:30;;;;;;;29.88;16.15;;;1.90;85.30;;;;;;5014925;28;20528;-58
2022/12/09 05:07:56;;;;;;;25.48;15.25;;;1.90;85.20;;;;;;5004117;28;20052;-59
2022/12/09 05:10:21;;;;;;;30.50;16.27;;;1.90;85.20;;;;;;5004705;28;20421;-58
2022/12/09 05:12:47;;;;;;;31.88;17.48;;;1.90;85.10;;;;;;5004308;28;20042;-60
2022/12/09 05:15:13;;;;;;;27.48;15.80;;;1.90;85.10;;;;;;5009554;28;20053;-58
2022/12/09 05:17:38;;;;;;;27.17;16.20;;;1.90;85.10;;;;;;5005805;28;20065;-59
2022/12/09 05:20:04;;;;;;;25.42;15.30;;;1.80;85.00;;;;;;4985855;28;22263;-60
2022/12/09 05:22:30;;;;;;;24.38;14.43;;;1.80;85.00;;;;;;4999483;28;20089;-59
2022/12/09 05:24:56;;;;;;;26.02;15.98;;;1.80;85.20;;;;;;4994555;28;20565;-60
2022/12/09 05:27:21;;;;;;;23.27;15.02;;;1.70;85.30;;;;;;4982063;28;20096;-61
2022/12/09 05:29:47;;;;;;;24.75;15.93;;;1.70;85.30;;;;;;5000071;28;20096;-60
2022/12/09 05:32:13;;;;;;;23.45;14.70;;;1.70;85.40;;;;;;5001323;28;20040;-61
2022/12/09 05:34:38;;;;;;;24.55;13.32;;;1.60;85.30;;;;;;5006848;28;20041;-59
2022/12/09 05:37:04;;;;;;;24.23;14.68;;;1.60;85.50;;;;;;5010472;28;20034;-60
2022/12/09 05:39:29;;;;;;;23.45;14.35;;;1.60;85.80;;;;;;5008829;28;20414;-58
2022/12/09 05:41:55;;;;;;;22.80;14.48;;;1.60;86.00;;;;;;5006734;28;20030;-59
2022/12/09 05:44:21;;;;;;;26.80;15.40;;;1.50;85.90;;;;;;5009434;28;20057;-59
2022/12/09 05:46:46;;;;;;;22.23;14.35;;;1.60;86.10;;;;;;5009231;28;20034;-60
2022/12/09 05:49:12;;;;;;;24.00;14.55;;;1.60;86.00;;;;;;5012016;28;20080;-60
2022/12/09 05:51:37;;;;;;;21.98;14.30;;;1.60;86.10;;;;;;5013024;28;20513;-60
2022/12/09 05:54:04;;;;;;;23.25;14.52;;;1.60;86.10;;;;;;5011257;28;20518;-58
2022/12/09 05:56:30;;;;;;;22.73;14.25;;;1.60;86.10;;;;;;5013218;28;20025;-59
2022/12/09 05:58:56;;;;;;;22.83;14.20;;;1.60;86.10;;;;;;5013376;28;20045;-61
2022/12/09 06:01:23;;;;;;;21.88;13.85;;;1.60;86.10;;;;;;5013356;28;20042;-60
2022/12/09 06:03:50;;;;;;;23.48;14.30;;;1.70;86.10;;;;;;5014096;28;20045;-60
2022/12/09 06:06:18;;;;;;;22.10;14.23;;;1.70;87.00;;;;;;5013024;28;20134;-60
2022/12/09 06:08:44;;;;;;;22.63;14.27;;;1.70;86.20;;;;;;5011879;28;20030;-60
2022/12/09 06:11:12;;;;;;;21.85;13.98;;;1.80;86.30;;;;;;5015089;28;20037;-59
2022/12/09 06:13:38;;;;;;;21.88;12.88;;;1.80;86.30;;;;;;5014568;28;20552;-59
2022/12/09 06:16:05;;;;;;;23.48;14.27;;;1.80;86.20;;;;;;5013680;28;20044;-60
2022/12/09 06:18:31;;;;;;;22.75;13.68;;;1.90;86.20;;;;;;5013673;28;20038;-60
2022/12/09 06:20:57;;;;;;;24.77;14.43;;;1.90;86.10;;;;;;5014011;28;20259;-61
2022/12/09 06:23:23;;;;;;;25.77;15.10;;;2.00;86.20;;;;;;5012531;28;20508;-60
2022/12/09 06:25:49;;;;;;;21.77;13.93;;;2.00;86.00;;;;;;5013379;28;20231;-60
2022/12/09 06:28:14;;;;;;;24.30;14.48;;;2.00;85.90;;;;;;5015356;28;20049;-57
2022/12/09 06:30:40;;;;;;;20.95;13.43;;;2.00;85.80;;;;;;5012309;28;20033;-57
2022/12/09 06:33:06;;;;;;;23.08;14.38;;;2.10;85.80;;;;;;5012935;28;20073;-60
2022/12/09 06:35:32;;;;;;;23.08;14.35;;;2.10;85.80;;;;;;5015659;28;20472;-60
2022/12/09 06:37:58;;;;;;;25.92;14.77;;;2.10;85.60;;;;;;5013028;28;20049;-61
2022/12/09 06:40:23;;;;;;;23.25;14.48;;;2.10;85.60;;;;;;5015805;28;20033;-59
2022/12/09 06:42:50;;;;;;;21.33;13.90;;;2.10;85.60;;;;;;5013211;28;20037;-57
2022/12/09 06:45:16;;;;;;;21.08;13.60;;;2.20;85.60;;;;;;5014287;28;20650;-60
2022/12/09 06:47:42;;;;;;;22.00;13.82;;;2.20;86.50;;;;;;5014551;28;20133;-61
2022/12/09 06:50:08;;;;;;;23.13;13.82;;;2.20;85.50;;;;;;5015993;28;20183;-61
2022/12/09 06:52:36;;;;;;;20.90;13.00;;;2.20;85.40;;;;;;5014530;28;20090;-59
2022/12/09 06:55:02;;;;;;;22.40;13.60;;;2.20;85.30;;;;;;5012145;28;20095;-61
2022/12/09 06:57:28;;;;;;;21.77;13.73;;;2.20;85.40;;;;;;5015427;28;20119;-61
2022/12/09 06:59:53;;;;;;;23.38;13.93;;;2.20;85.40;;;;;;5014648;28;20334;-61
2022/12/09 07:02:19;;;;;;;21.83;13.75;;;2.20;85.30;;;;;;5011317;28;20037;-60
2022/12/09 07:04:46;;;;;;;23.42;14.15;;;2.20;85.40;;;;;;5013145;28;20043;-58
2022/12/09 07:07:11;;;;;;;27.17;15.05;;;2.20;85.40;;;;;;5014566;28;20037;-60
2022/12/09 07:09:37;;;;;;;23.10;14.55;;;2.20;85.40;;;;;;5011937;28;20409;-59
2022/12/09 07:12:03;;;;;;;26.27;15.15;;;2.20;85.40;;;;;;5013162;28;20258;-61
2022/12/09 07:14:29;;;;;;;24.55;14.90;;;2.20;85.50;;;;;;5012303;28;20042;-61
2022/12/09 07:16:59;;;;;;;20.98;13.65;;;2.20;85.60;;;;;;5016664;28;20040;-59
2022/12/09 07:19:24;;;;;;;25.08;15.20;;;2.20;85.60;;;;;;5010938;28;20025;-61
2022/12/09 07:21:50;;;;;;;24.67;14.63;;;2.20;85.60;;;;;;5012485;28;20036;-58
2022/12/09 07:24:17;;;;;;;24.02;14.68;;;2.20;85.60;;;;;;5010896;28;20571;-61
2022/12/09 07:26:43;;;;;;;27.35;16.20;;;2.30;85.60;;;;;;5011509;28;20044;-61
2022/12/09 07:29:08;;;;;;;25.77;15.60;;;2.20;85.50;;;;;;5013409;28;20034;-59
2022/12/09 07:31:35;;;;;;;24.67;14.40;;;2.30;85.40;;;;;;5014425;28;20037;-61
2022/12/09 07:34:01;;;;;;;26.85;16.08;;;2.30;85.40;;;;;;5012344;28;20034;-60
2022/12/09 07:36:28;;;;;;;25.38;15.02;;;2.30;85.30;;;;;;5015247;28;20034;-61
2022/12/09 07:39:02;;;;;;;25.15;15.35;;;2.30;85.40;;;;;;5015043;28;20493;-61
2022/12/09 07:41:27;;;;;;;28.48;16.73;;;2.30;85.50;;;;;;5017336;28;20502;-61
2022/12/09 07:43:53;;;;;;;24.67;14.75;;;2.30;85.40;;;;;;5011179;28;20038;-62
2022/12/09 07:46:20;;;;;;;27.20;16.48;;;2.30;85.30;;;;;;5016037;28;20034;-60
2022/12/09 07:48:46;;;;;;;27.73;15.25;;;2.30;85.40;;;;;;5015386;28;20052;-62
2022/12/09 07:51:12;;;;;;;27.85;16.02;;;2.30;85.40;;;;;;5017547;28;20456;-61
2022/12/09 07:53:38;;;;;;;27.33;16.08;;;2.30;85.30;;;;;;5014947;28;20095;-59
2022/12/09 07:56:06;;;;;;;24.75;14.48;;;2.20;85.10;;;;;;5016203;28;20044;-61
2022/12/09 07:58:33;;;;;;;26.45;15.30;;;2.20;85.30;;;;;;5015542;28;20053;-60
2022/12/09 08:01:11;;;;;;;24.48;15.13;;;2.20;86.10;;;;;;5010736;28;20041;-60
2022/12/09 08:03:36;;;;;;;28.10;15.50;;;2.20;85.20;;;;;;5011259;28;20168;-60
2022/12/09 08:06:03;;;;;;;28.00;15.50;;;2.20;85.10;;;;;;5016459;28;20119;-61
2022/12/09 08:08:29;;;;;;;24.58;14.48;;;2.10;85.10;;;;;;5015898;28;20044;-59
2022/12/09 08:10:55;;;;;;;24.08;14.65;;;2.10;85.30;;;;;;5013967;28;20119;-61
2022/12/09 08:13:20;;;;;;;25.02;15.23;;;2.00;85.40;;;;;;5012510;28;20026;-61
2022/12/09 08:15:46;;;;;;;25.15;15.35;;;1.90;85.60;;;;;;5012072;28;20134;-60
2022/12/09 08:18:12;;;;;;;25.08;15.50;;;1.90;85.70;;;;;;5013538;28;20073;-59
2022/12/09 08:20:39;;;;;;;26.02;14.93;;;1.90;86.00;;;;;;5013748;28;20068;-57
2022/12/09 08:23:05;;;;;;;24.20;14.63;;;1.90;86.10;;;;;;5014543;28;20034;-58
2022/12/09 08:25:30;;;;;;;26.90;16.20;;;1.90;86.20;;;;;;5015169;28;20988;-60
2022/12/09 08:27:57;;;;;;;23.95;14.85;;;1.90;86.30;;;;;;5012178;28;21007;-59
2022/12/09 08:30:23;;;;;;;27.80;15.85;;;1.90;86.30;;;;;;5013466;28;20413;-60
2022/12/09 08:32:48;;;;;;;26.67;14.65;;;1.90;86.30;;;;;;5012430;28;21064;-61
2022/12/09 08:35:14;;;;;;;26.10;15.50;;;1.90;86.30;;;;;;5013635;28;20041;-60
2022/12/09 08:37:41;;;;;;;26.02;15.60;;;1.90;86.30;;;;;;5012948;28;20037;-60
2022/12/09 08:40:07;;;;;;;27.67;16.70;;;2.00;86.50;;;;;;5012097;28;20117;-60
2022/12/09 08:42:33;;;;;;;26.70;16.25;;;2.00;86.50;;;;;;5010646;28;20137;-60
2022/12/09 08:44:58;;;;;;;26.33;16.10;;;2.00;86.50;;;;;;5012730;28;20117;-59
2022/12/09 08:47:26;;;;;;;28.73;16.02;;;2.00;86.50;;;;;;5013432;28;20029;-59
2022/12/09 08:49:52;;;;;;;28.15;16.52;;;2.10;86.50;;;;;;5012277;28;20102;-60
2022/12/09 08:52:17;;;;;;;30.70;16.67;;;2.10;86.30;;;;;;5012064;28;20420;-60
2022/12/09 08:54:43;;;;;;;25.65;15.27;;;2.10;86.20;;;;;;5012153;28;20037;-58
2022/12/09 08:57:08;;;;;;;27.55;16.70;;;2.10;86.10;;;;;;5012205;28;20030;-60
2022/12/09 08:59:34;;;;;;;29.90;16.85;;;2.20;86.30;;;;;;5011759;28;20408;-59
2022/12/09 09:01:59;;;;;;;30.77;16.60;;;2.20;86.00;;;;;;5007798;28;20034;-60
2022/12/09 09:04:25;;;;;;;29.63;15.55;;;2.20;86.10;;;;;;5013158;28;20362;-60
2022/12/09 09:06:51;;;;;;;30.50;17.25;;;2.20;86.00;;;;;;5013325;28;20037;-59
2022/12/09 09:09:18;;;;;;;29.90;17.05;;;2.20;86.10;;;;;;5013033;28;20092;-60
2022/12/09 09:11:44;;;;;;;31.55;17.25;;;2.20;86.00;;;;;;5009695;28;20037;-59
2022/12/09 09:14:11;;;;;;;29.52;17.20;;;2.30;86.00;;;;;;5012285;28;20509;-58
2022/12/09 09:16:39;;;;;;;30.65;17.92;;;2.30;86.00;;;;;;5012376;28;20413;-61
2022/12/09 09:19:04;;;;;;;30.88;17.17;;;2.20;86.00;;;;;;5011642;28;20053;-61
2022/12/09 09:21:31;;;;;;;32.17;17.35;;;2.30;86.00;;;;;;5010584;28;20041;-60
2022/12/09 09:23:56;;;;;;;35.75;19.67;;;2.30;86.10;;;;;;5010108;28;20420;-59
2022/12/09 09:26:26;;;;;;;34.63;19.73;;;2.30;86.30;;;;;;5013135;28;20042;-61
2022/12/09 09:28:53;;;;;;;34.53;19.77;;;2.30;86.20;;;;;;5013329;28;20037;-59
2022/12/09 09:31:20;;;;;;;36.47;20.10;;;2.30;86.10;;;;;;5013071;28;20473;-61
2022/12/09 09:33:47;;;;;;;34.40;18.95;;;2.30;86.10;;;;;;5015217;28;20034;-60
2022/12/09 09:36:19;;;;;;;35.50;19.00;;;2.30;86.30;;;;;;5009463;28;20049;-60
2022/12/09 09:38:46;;;;;;;32.70;18.33;;;2.30;86.50;;;;;;5014024;28;20037;-58
2022/12/09 09:41:41;;;;;;;32.22;18.55;;;2.20;86.60;;;;;;5010836;28;20034;-61
2022/12/09 09:44:20;;;;;;;37.35;20.33;;;2.30;87.10;;;;;;5014968;28;20030;-59
2022/12/09 09:46:48;;;;;;;39.63;19.88;;;2.30;87.10;;;;;;5010487;28;20090;-61
2022/12/09 09:49:36;;;;;;;37.92;19.83;;;2.50;87.00;;;;;;5015432;28;20041;-60
2022/12/09 09:52:17;;;;;;;36.92;19.55;;;2.30;87.10;;;;;;5016362;28;20058;-60
2022/12/09 09:54:42;;;;;;;40.47;20.10;;;2.30;87.10;;;;;;4998092;28;20040;-59
2022/12/09 09:57:17;;;;;;;38.17;20.75;;;2.30;86.90;;;;;;5013054;28;20030;-59
2022/12/09 10:00:05;;;;;;;40.10;21.27;;;2.40;87.90;;;;;;5014818;28;20041;-60
2022/12/09 10:02:58;;;;;;;35.28;19.80;;;2.40;87.20;;;;;;5012910;28;20040;-58
2022/12/09 10:05:28;;;;;;;37.75;20.05;;;2.40;87.20;;;;;;5016552;28;20033;-59
2022/12/09 10:08:25;;;;;;;40.85;20.48;;;2.50;87.10;;;;;;5014357;28;20080;-59
2022/12/09 10:11:09;;;;;;;39.40;20.48;;;2.50;87.30;;;;;;5014608;28;20487;-60
2022/12/09 10:14:02;;;;;;;39.28;20.63;;;2.50;87.20;;;;;;5014612;28;20037;-60
2022/12/09 10:17:03;;;;;;;41.13;21.20;;;2.60;87.20;;;;;;5015335;28;20428;-60
2022/12/09 10:19:40;;;;;;;37.60;20.10;;;2.60;87.00;;;;;;4941736;28;20039;-62
2022/12/09 10:22:16;;;;;;;40.40;20.67;;;2.60;86.90;;;;;;5008084;28;20034;-61
2022/12/09 10:24:47;;;;;;;38.83;21.60;;;2.60;87.00;;;;;;5015473;28;20037;-60
2022/12/09 10:27:33;;;;;;;36.28;19.88;;;2.60;87.00;;;;;;5014642;28;20100;-59
2022/12/09 10:30:13;;;;;;;36.85;20.27;;;2.60;87.00;;;;;;5014572;28;20037;-61
2022/12/09 10:32:39;;;;;;;36.00;20.05;;;2.70;87.30;;;;;;5014710;28;20160;-58
2022/12/09 10:35:12;;;;;;;37.63;20.75;;;2.70;87.20;;;;;;5016368;28;20140;-61
2022/12/09 10:37:38;;;;;;;37.17;19.87;;;2.70;87.30;;;;;;5016760;28;20469;-59
2022/12/09 10:40:19;;;;;;;36.40;19.75;;;2.70;87.10;;;;;;5012368;28;20033;-62
2022/12/09 10:45:46;;;;;;;37.42;19.80;;;2.70;87.30;;;;;;5015338;28;20052;-62
2022/12/09 10:48:45;;;;;;;37.97;20.13;;;2.80;87.30;;;;;;5014581;28;20033;-59
2022/12/09 10:51:23;;;;;;;38.42;20.35;;;2.80;87.40;;;;;;5014578;28;20095;-60
2022/12/09 10:53:57;;;;;;;33.83;19.00;;;2.90;87.20;;;;;;5015949;28;20335;-62
2022/12/09 10:56:26;;;;;;;35.85;19.58;;;2.90;87.10;;;;;;5017052;28;20061;-61
2022/12/09 10:59:30;;;;;;;36.58;20.33;;;2.90;87.00;;;;;;5014829;28;20503;-62
2022/12/09 11:02:00;;;;;;;37.45;20.50;;;3.00;87.20;;;;;;4919365;29;20447;-61
2022/12/09 11:04:31;;;;;;;37.53;20.08;;;3.00;86.70;;;;;;4916303;29;20047;-60
2022/12/09 11:07:10;;;;;;;35.80;19.20;;;2.90;86.50;;;;;;4970099;28;20124;-61
2022/12/09 11:09:50;;;;;;;32.70;18.73;;;2.90;86.70;;;;;;5011582;28;20092;-58
2022/12/09 11:12:26;;;;;;;35.20;21.70;;;2.90;86.80;;;;;;5017519;28;20038;-60
2022/12/09 11:15:04;;;;;;;32.60;18.95;;;2.90;86.80;;;;;;5015168;28;20033;-61
2022/12/09 11:17:33;;;;;;;36.70;20.25;;;2.90;87.20;;;;;;5017189;28;20045;-60
2022/12/09 11:20:04;;;;;;;33.75;19.33;;;2.90;87.00;;;;;;5015877;28;20030;-60
2022/12/09 11:22:39;;;;;;;35.88;19.13;;;2.90;87.00;;;;;;5013564;28;20065;-60
2022/12/09 11:25:10;;;;;;;38.67;21.70;;;2.90;87.00;;;;;;5016060;28;20172;-58
2022/12/09 11:27:58;;;;;;;36.97;19.38;;;2.90;87.30;;;;;;5012367;28;20512;-59
2022/12/09 11:30:26;;;;;;;40.42;20.70;;;2.90;87.50;;;;;;5011532;28;20034;-59
2022/12/09 11:32:54;;;;;;;44.58;22.75;;;2.80;87.30;;;;;;5011838;28;20096;-58
2022/12/09 11:35:29;;;;;;;45.15;23.15;;;2.90;87.60;;;;;;5012343;28;20045;-62
2022/12/09 11:37:57;;;;;;;42.58;23.42;;;2.80;87.70;;;;;;5008640;28;20033;-58
2022/12/09 11:40:26;;;;;;;41.55;23.27;;;2.80;87.70;;;;;;5011039;28;20676;-60
2022/12/09 11:42:54;;;;;;;44.03;22.85;;;2.90;87.80;;;;;;5006437;28;20030;-59
2022/12/09 11:45:39;;;;;;;44.15;22.30;;;2.90;87.90;;;;;;5009198;28;20074;-59
2022/12/09 11:48:28;;;;;;;42.92;21.38;;;3.00;88.20;;;;;;5012573;28;20417;-58
2022/12/09 11:50:54;;;;;;;40.55;21.35;;;3.00;88.00;;;;;;5008365;28;20041;-58
2022/12/09 11:53:29;;;;;;;38.42;20.42;;;3.00;87.70;;;;;;5013072;28;20436;-59
2022/12/09 11:56:07;;;;;;;39.05;21.30;;;2.90;87.70;;;;;;5009294;28;20038;-59
2022/12/09 11:58:43;;;;;;;40.47;20.75;;;3.10;87.80;;;;;;5007969;28;21636;-61
2022/12/09 12:01:48;;;;;;;38.78;19.98;;;3.10;87.50;;;;;;5011869;28;20023;-59
2022/12/09 12:04:17;;;;;;;36.35;19.60;;;3.10;87.70;;;;;;5008600;28;20061;-59
2022/12/09 12:07:01;;;;;;;36.28;19.25;;;3.10;87.50;;;;;;5012252;28;20076;-59
2022/12/09 12:09:40;;;;;;;36.05;19.45;;;3.20;87.70;;;;;;5011636;28;20034;-58
2022/12/09 12:12:38;;;;;;;36.75;19.98;;;3.20;87.50;;;;;;5007732;28;20060;-59
2022/12/09 12:15:20;;;;;;;34.50;19.45;;;3.20;87.50;;;;;;4969636;28;20162;-57
2022/12/09 12:17:54;;;;;;;35.25;19.52;;;3.30;87.50;;;;;;5009298;28;20107;-58
2022/12/09 12:20:24;;;;;;;32.97;18.42;;;3.30;87.30;;;;;;5009577;28;20069;-60
2022/12/09 12:22:52;;;;;;;31.92;18.80;;;3.30;87.50;;;;;;5010428;28;20037;-58
2022/12/09 12:25:24;;;;;;;36.72;19.65;;;3.30;87.50;;;;;;5010381;28;20122;-59
2022/12/09 12:28:22;;;;;;;34.67;19.42;;;3.30;87.50;;;;;;5007834;28;20034;-60
2022/12/09 12:31:25;;;;;;;32.67;18.73;;;3.40;87.50;;;;;;5007289;28;20030;-60
2022/12/09 12:34:11;;;;;;;32.55;17.58;;;3.40;87.50;;;;;;5008519;28;20045;-59
2022/12/09 12:36:53;;;;;;;31.90;17.10;;;3.40;87.20;;;;;;5009236;28;20052;-61
2022/12/09 12:39:45;;;;;;;31.17;18.05;;;3.50;87.20;;;;;;5011394;28;20052;-58
2022/12/09 12:42:18;;;;;;;32.63;18.42;;;3.50;87.20;;;;;;5009330;28;20064;-60
2022/12/09 12:48:09;;;;;;;33.55;19.50;;;3.50;87.00;;;;;;5006502;28;20079;-60
2022/12/09 12:51:14;;;;;;;29.35;17.60;;;3.50;86.80;;;;;;5009157;28;20040;-61
2022/12/09 12:54:04;;;;;;;30.30;17.65;;;3.50;86.80;;;;;;5006334;28;20061;-62
2022/12/09 12:56:51;;;;;;;28.88;16.90;;;3.50;86.80;;;;;;5011347;28;20039;-60
2022/12/09 12:59:43;;;;;;;27.88;16.95;;;3.50;86.80;;;;;;5009968;28;20046;-62